TAF Flughafenprognosen

Nürnberg (Lang-TAF), ausgegeben Mo 27.06. 07:00

EDDN 270500Z 2706/2806 25004KT 9999 SCT030 BECMG 2707/2709 27010KT BECMG 2718/2720 26004KT
GültigkeitVonBisWind in Beaufort
(Knoten)
Wolken
(Meter über Grund)
Sichtweite
(Meter)
Wettererscheinung
Grundvorhersage Mo 27.06. 08:00 Di 28.06. 08:00 WSW 2 (4) Wolkig (910) >= 10000  
Übergang zu Mo 27.06. 09:00 Mo 27.06. 11:00 W 3 (10)      
Übergang zu Mo 27.06. 20:00 Mo 27.06. 22:00 W 2 (4)      

 

Hof (Kurz-TAF), ausgegeben Mo 27.06. 10:00

EDQM 270800Z 2709/2718 25008KT 9999 FEW030
GültigkeitVonBisWind in Beaufort
(Knoten)
Wolken
(Meter über Grund)
Sichtweite
(Meter)
Wettererscheinung
Grundvorhersage Mo 27.06. 11:00 Mo 27.06. 20:00 WSW 3 (8) Leicht bewölkt (910) >= 10000  

 

Erfurt-Bindersleben (Lang-TAF), ausgegeben Mo 27.06. 07:00

EDDE 270500Z 2706/2806 25010KT CAVOK BECMG 2718/2721 25005KT
GültigkeitVonBisWind in Beaufort
(Knoten)
Wolken
(Meter über Grund)
Sichtweite
(Meter)
Wettererscheinung
Grundvorhersage Mo 27.06. 08:00 Di 28.06. 08:00 WSW 3 (10) Nicht signifikant >= 10000  
Übergang zu Mo 27.06. 20:00 Mo 27.06. 23:00 WSW 2 (5)      

 

Augsburg (Kurz-TAF), ausgegeben Mo 27.06. 10:00

EDMA 270800Z 2709/2718 29008KT 9999 FEW030
GültigkeitVonBisWind in Beaufort
(Knoten)
Wolken
(Meter über Grund)
Sichtweite
(Meter)
Wettererscheinung
Grundvorhersage Mo 27.06. 11:00 Mo 27.06. 20:00 WNW 3 (8) Leicht bewölkt (910) >= 10000  

 

Frankfurt (Lang-TAF), ausgegeben Mo 27.06. 07:00

EDDF 270500Z 2706/2812 22005KT 9999 SCT030 BECMG 2707/2709 24010KT BECMG 2718/2720 21005KT TEMPO 2718/2806 SCT020 BKN040 BECMG 2723/2802 VRB03KT
GültigkeitVonBisWind in Beaufort
(Knoten)
Wolken
(Meter über Grund)
Sichtweite
(Meter)
Wettererscheinung
Grundvorhersage Mo 27.06. 08:00 Di 28.06. 14:00 SW 2 (5) Wolkig (910) >= 10000  
Übergang zu Mo 27.06. 09:00 Mo 27.06. 11:00 WSW 3 (10)      
Übergang zu Mo 27.06. 20:00 Mo 27.06. 22:00 SSW 2 (5)      
Vorübergehend Mo 27.06. 20:00 Di 28.06. 08:00   Stark bewölkt (1200)
Wolkig (610)
   
Übergang zu Di 28.06. 01:00 Di 28.06. 04:00 Uml 2 (3)      

 

Stuttgart (Lang-TAF), ausgegeben Mo 27.06. 07:00

EDDS 270500Z 2706/2806 26004KT 9999 SCT025 BECMG 2707/2710 30009KT BECMG 2718/2721 VRB02KT
GültigkeitVonBisWind in Beaufort
(Knoten)
Wolken
(Meter über Grund)
Sichtweite
(Meter)
Wettererscheinung
Grundvorhersage Mo 27.06. 08:00 Di 28.06. 08:00 W 2 (4) Wolkig (760) >= 10000  
Übergang zu Mo 27.06. 09:00 Mo 27.06. 12:00 WNW 3 (9)      
Übergang zu Mo 27.06. 20:00 Mo 27.06. 23:00 Uml 1 (2)      

 

München (Lang-TAF), ausgegeben Mo 27.06. 07:00

EDDM 270500Z 2706/2812 27006KT 9999 SCT030
GültigkeitVonBisWind in Beaufort
(Knoten)
Wolken
(Meter über Grund)
Sichtweite
(Meter)
Wettererscheinung
Grundvorhersage Mo 27.06. 08:00 Di 28.06. 14:00 W 2 (6) Wolkig (910) >= 10000